National Weather Service United States Department of Commerce

 

Aviation Weather Center TAFs Radar Soundings/Model Data Soaring
NWS Wichita Home Page Hazardous Weather Outlook NWS Graphical Forecasts

 

Wichita (ICT)
Hutchinson (HUT)
Tactical Decision Aid
 
Tactical Decision Aid
 

     
                        
003
FTUS43 KICT 232322
TAFICT
TAF
KICT 232322Z 2400/2424 16007KT P6SM SKC=
     
                        
944
FTUS43 KICT 232322
TAFHUT
TAF
KHUT 232322Z 2400/2424 16007KT P6SM SKC=
Salina (SLN) Russell (RSL)
Tactical Decision Aid
Tactical Decision Aid

     
                        
579
FTUS43 KICT 232322
TAFSLN
TAF
KSLN 232322Z 2400/2424 16007KT P6SM SKC=

     
                        
647
FTUS43 KICT 232322
TAFRSL
TAF
KRSL 232322Z 2400/2424 18007KT P6SM SKC=
Chanute (CNU) Great Bend (GBD)
Tactical Decision Aid
Tactical Decision Aid

     
                        
816
FTUS43 KICT 232322
TAFCNU
TAF
KCNU 232322Z 2400/2424 VRB04KT P6SM SKC=

     
                        
330
FTUS43 KICT 232322
TAFGBD
TAF
KGBD 232322Z 2400/2424 18007KT P6SM SKC=
 
NWS Wichita Aviation Forecast Discussion

 

 

IMPORTANT: This page is a tool to help pilots better visualize weather and weather-related hazards, and is not a substitute for a weather briefing obtained from a Flight Service Station (1-800-WXBRIEF). The information contained here does not meet the FAA requirements for a pre-flight weather brief. Therefore, it is important that pilots call and obtain a briefing from an FAA Flight Service Specialist.